createdAt,value
2018-09-14T00:09:14.643Z,11.28
2018-09-14T00:10:06.877Z,11.28
2018-09-14T00:11:21.571Z,11.20
2018-09-14T00:12:06.802Z,11.26
2018-09-14T00:13:12.610Z,11.19
2018-09-14T00:14:06.757Z,11.20
2018-09-14T00:15:11.600Z,11.21
2018-09-14T00:16:06.694Z,11.11
2018-09-14T00:17:28.677Z,11.16
2018-09-14T00:18:06.649Z,10.94
2018-09-14T00:19:30.649Z,11.09
2018-09-14T00:20:06.590Z,11.02
2018-09-14T00:21:06.587Z,10.94
2018-09-14T00:22:06.589Z,10.94
2018-09-14T00:23:06.524Z,10.98
2018-09-14T00:24:12.172Z,10.98
2018-09-14T00:25:06.477Z,10.95
2018-09-14T00:26:13.084Z,10.94
2018-09-14T00:27:06.411Z,11.01
2018-09-14T00:28:08.477Z,10.94
2018-09-14T00:29:06.374Z,10.98
2018-09-14T01:03:56.748Z,10.52
2018-09-14T01:04:56.709Z,10.63
2018-09-14T01:06:03.442Z,10.55
2018-09-14T01:06:56.647Z,10.52
2018-09-14T01:07:56.726Z,10.49
2018-09-14T01:08:56.569Z,10.44
2018-09-14T01:09:56.557Z,10.43
2018-09-14T01:10:56.525Z,10.38
2018-09-14T01:11:56.503Z,10.36
2018-09-14T01:12:56.471Z,10.25
2018-09-14T01:13:56.444Z,10.32
2018-09-14T01:14:57.634Z,10.31
2018-09-14T01:15:56.396Z,10.35
2018-09-14T01:16:56.455Z,10.29
2018-09-14T01:17:56.361Z,10.26
2018-09-14T01:18:56.366Z,10.16
2018-09-14T01:19:56.297Z,10.18
2018-09-14T01:20:56.378Z,10.16
2018-09-14T01:21:56.242Z,10.14
2018-09-14T01:22:56.304Z,10.13
2018-09-14T01:23:56.192Z,10.11
2018-09-14T01:24:56.211Z,10.07
2018-09-14T01:25:56.142Z,10.06
2018-09-14T01:26:56.239Z,10.06
2018-09-14T01:27:56.095Z,9.93
2018-09-14T01:29:47.208Z,9.98
2018-09-14T01:30:47.156Z,9.92
2018-09-14T01:31:47.126Z,9.91
2018-09-14T01:32:47.102Z,9.92
2018-09-14T01:33:47.153Z,9.99
2018-09-14T01:34:47.060Z,9.83
2018-09-14T01:35:47.065Z,9.83
2018-09-14T01:36:47.001Z,9.81
2018-09-14T01:37:47.075Z,9.80
2018-09-14T01:38:46.947Z,10.01
2018-09-14T01:39:47.011Z,10.01
2018-09-14T01:40:46.913Z,9.92
2018-09-14T01:41:47.919Z,9.96
2018-09-14T01:42:46.839Z,9.83
2018-09-14T01:43:46.911Z,9.96
2018-09-14T01:44:46.792Z,9.98
2018-09-14T01:45:46.838Z,9.88
2018-09-14T01:46:46.743Z,9.78
2018-09-14T01:47:46.734Z,9.99
2018-09-14T01:48:46.699Z,9.83
2018-09-14T01:49:46.744Z,9.89
2018-09-14T01:50:46.652Z,9.89
2018-09-14T01:51:46.657Z,9.91
2018-09-14T01:52:46.589Z,9.88
2018-09-14T01:53:46.669Z,9.81
2018-09-14T01:54:46.537Z,9.86
2018-09-14T01:55:46.585Z,9.83
2018-09-14T01:56:46.488Z,9.88
2018-09-14T01:57:46.493Z,9.80
2018-09-14T01:58:46.436Z,9.85
2018-09-14T01:59:46.504Z,9.86
2018-09-14T02:00:46.391Z,9.80
2018-09-14T02:01:46.434Z,9.81
2018-09-14T02:02:46.342Z,9.91
2018-09-14T02:03:46.328Z,9.89
2018-09-14T02:04:46.274Z,9.81
2018-09-14T02:05:46.343Z,9.80
2018-09-14T02:06:46.232Z,9.83
2018-09-14T02:07:46.261Z,9.85
2018-09-14T02:08:46.178Z,9.75
2018-09-14T02:09:46.168Z,9.77
2018-09-14T02:10:46.122Z,9.73
2018-09-14T02:11:46.178Z,9.78
2018-09-14T02:12:46.072Z,9.77
2018-09-14T02:13:46.106Z,9.70
2018-09-14T02:14:46.022Z,9.77
2018-09-14T02:15:46.119Z,9.71
2018-09-14T02:16:45.989Z,9.70
2018-09-14T02:17:46.031Z,9.59
2018-09-14T02:18:45.918Z,9.63
2018-09-14T02:19:45.935Z,9.63
2018-09-14T02:20:45.868Z,9.58
2018-09-14T02:21:45.944Z,9.59
2018-09-14T02:22:45.825Z,9.45
2018-09-14T02:23:45.854Z,9.53
2018-09-14T02:24:45.764Z,9.45
2018-09-14T02:25:45.770Z,9.49
2018-09-14T02:26:45.707Z,9.45
2018-09-14T02:27:45.786Z,9.35
2018-09-14T02:28:45.681Z,9.42
2018-09-14T02:29:45.710Z,9.27
2018-09-14T02:30:45.615Z,9.31
2018-09-14T02:31:45.701Z,9.30
2018-09-14T02:32:45.557Z,9.26
2018-09-14T02:33:45.618Z,9.35
2018-09-14T02:34:45.514Z,9.27
2018-09-14T02:35:45.530Z,9.31
2018-09-14T02:36:45.466Z,9.32
2018-09-14T02:37:46.473Z,9.24
2018-09-14T02:38:45.408Z,9.26
2018-09-14T02:39:45.456Z,9.27
2018-09-14T02:40:45.358Z,9.37
2018-09-14T02:41:45.385Z,9.31
2018-09-14T02:42:45.308Z,9.22
2018-09-14T02:43:45.373Z,9.27
2018-09-14T02:44:45.247Z,9.22
2018-09-14T02:45:45.297Z,9.34
2018-09-14T02:46:45.195Z,9.27
2018-09-14T02:47:45.206Z,9.26
2018-09-14T02:48:45.161Z,9.17
2018-09-14T02:49:45.213Z,9.12
2018-09-14T02:50:45.115Z,9.24
2018-09-14T02:51:45.132Z,9.16
2018-09-14T02:52:45.063Z,9.10
2018-09-14T02:54:32.966Z,9.12
2018-09-14T02:55:32.887Z,9.15
2018-09-14T02:56:32.870Z,9.20
2018-09-14T02:57:32.844Z,9.16
2018-09-14T02:58:32.817Z,9.10
2018-09-14T02:59:32.796Z,9.17
2018-09-14T03:00:32.782Z,9.23
2018-09-14T03:01:32.743Z,9.22
2018-09-14T03:02:32.718Z,9.23
2018-09-14T03:03:32.686Z,9.13
2018-09-14T03:04:32.664Z,9.19
2018-09-14T03:05:32.639Z,9.19
2018-09-14T03:06:32.605Z,9.13
2018-09-14T03:07:32.600Z,9.17
2018-09-14T03:08:32.553Z,9.16
2018-09-14T03:09:32.530Z,9.16
2018-09-14T03:10:32.513Z,9.06
2018-09-14T03:11:32.480Z,9.12
2018-09-14T03:12:32.452Z,9.10
2018-09-14T03:13:32.442Z,9.16
2018-09-14T03:14:32.411Z,9.24
2018-09-14T03:15:32.393Z,9.08
2018-09-14T03:16:32.357Z,9.04
2018-09-14T03:17:32.327Z,9.13
2018-09-14T03:18:32.299Z,9.22
2018-09-14T03:19:32.275Z,9.12
2018-09-14T03:20:32.256Z,9.15
2018-09-14T03:21:32.213Z,9.19
2018-09-14T03:22:32.222Z,9.15
2018-09-14T03:23:32.171Z,9.08
2018-09-14T03:24:21.790Z,9.17
2018-09-14T03:25:21.742Z,9.13
2018-09-14T03:26:21.728Z,9.15
2018-09-14T03:27:21.671Z,9.03
2018-09-14T03:28:21.644Z,9.13
2018-09-14T03:29:21.629Z,9.10
2018-09-14T03:30:21.590Z,9.04
2018-09-14T03:31:21.570Z,9.06
2018-09-14T03:32:21.582Z,9.19
2018-09-14T03:33:21.521Z,9.03
2018-09-14T03:34:21.493Z,9.10
2018-09-14T03:35:21.464Z,9.13
2018-09-14T03:36:21.429Z,9.03
2018-09-14T03:37:21.431Z,9.06
2018-09-14T03:38:21.387Z,9.00
2018-09-14T03:39:21.383Z,8.98
2018-09-14T03:40:21.386Z,9.15
2018-09-14T03:41:21.311Z,9.06
2018-09-14T03:42:21.280Z,9.06
2018-09-14T03:43:21.269Z,8.96
2018-09-14T03:44:21.235Z,8.97
2018-09-14T03:45:21.220Z,9.16
2018-09-14T03:46:21.209Z,9.03
2018-09-14T03:47:21.155Z,9.17
2018-09-14T03:48:21.119Z,9.10
2018-09-14T03:49:21.161Z,9.15
2018-09-14T03:50:21.161Z,9.04
2018-09-14T03:52:14.096Z,9.03
2018-09-14T03:53:14.082Z,9.08
2018-09-14T03:54:13.946Z,9.01
2018-09-14T03:55:13.938Z,8.98
2018-09-14T03:56:13.895Z,9.12
2018-09-14T03:57:13.885Z,8.98
2018-09-14T03:58:13.841Z,9.10
2018-09-14T03:59:13.818Z,9.06
2018-09-14T04:00:13.790Z,9.10
2018-09-14T04:01:13.855Z,9.00
2018-09-14T04:02:13.755Z,9.10
2018-09-14T04:03:13.711Z,8.97
2018-09-14T04:04:13.676Z,9.06
2018-09-14T04:05:13.677Z,9.00
2018-09-14T04:06:13.640Z,9.03
2018-09-14T04:07:13.637Z,9.03
2018-09-14T04:08:13.581Z,9.08
2018-09-14T04:09:13.603Z,9.06
2018-09-14T04:10:13.525Z,9.15
2018-09-14T04:11:13.520Z,9.01
2018-09-14T04:12:13.490Z,9.03
2018-09-14T04:13:13.462Z,9.12
2018-09-14T04:15:02.658Z,9.01
2018-09-14T04:16:02.607Z,9.01
2018-09-14T04:17:02.605Z,9.06
2018-09-14T04:18:02.564Z,9.04
2018-09-14T04:19:02.536Z,9.01
2018-09-14T04:20:03.509Z,9.10
2018-09-14T04:21:02.494Z,9.10
2018-09-14T04:22:02.523Z,9.03
2018-09-14T04:23:02.425Z,8.96
2018-09-14T04:24:02.452Z,9.03
2018-09-14T04:25:02.371Z,9.01
2018-09-14T04:26:02.459Z,8.98
2018-09-14T04:27:02.319Z,9.06
2018-09-14T04:28:03.399Z,8.88
2018-09-14T04:29:02.308Z,8.83
2018-09-14T04:30:51.212Z,8.85
2018-09-14T04:31:51.172Z,8.86
2018-09-14T04:32:51.139Z,8.89
2018-09-14T04:33:51.114Z,8.85
2018-09-14T04:34:51.089Z,8.91
2018-09-14T04:35:51.165Z,8.85
2018-09-14T04:36:51.036Z,8.86
2018-09-14T04:37:51.011Z,8.91
2018-09-14T04:38:50.980Z,8.93
2018-09-14T04:39:50.956Z,8.79
2018-09-14T04:40:50.926Z,8.82
2018-09-14T04:41:50.994Z,8.79
2018-09-14T04:42:50.872Z,8.80
2018-09-14T04:43:50.850Z,8.83
2018-09-14T04:44:50.845Z,8.70
2018-09-14T04:45:50.799Z,8.76
2018-09-14T04:46:50.820Z,8.75
2018-09-14T04:47:50.748Z,8.78
2018-09-14T04:48:50.716Z,8.70
2018-09-14T04:49:50.746Z,8.78
2018-09-14T04:50:50.673Z,8.71
2018-09-14T04:51:50.767Z,8.67
2018-09-14T04:52:50.647Z,8.70
2018-09-14T04:53:50.599Z,8.73
2018-09-14T04:54:50.698Z,8.65
2018-09-14T04:55:50.542Z,8.68
2018-09-14T04:56:50.516Z,8.68
2018-09-14T04:57:50.513Z,8.67
2018-09-14T04:58:50.486Z,8.57
2018-09-14T04:59:50.435Z,8.60
2018-09-14T05:01:50.309Z,8.64
2018-09-14T05:02:50.250Z,8.61
2018-09-14T05:03:50.215Z,8.65
2018-09-14T05:04:50.210Z,8.61
2018-09-14T05:05:50.164Z,8.57
2018-09-14T05:06:50.139Z,8.63
2018-09-14T05:07:50.141Z,8.58
2018-09-14T05:08:50.114Z,8.58
2018-09-14T05:09:50.068Z,8.43
2018-09-14T05:10:50.047Z,8.45
2018-09-14T05:11:50.086Z,8.43
2018-09-14T05:12:50.020Z,8.34
2018-09-14T05:13:49.957Z,8.37
2018-09-14T05:14:49.946Z,8.37
2018-09-14T05:15:49.912Z,8.43
2018-09-14T05:16:49.881Z,8.37
2018-09-14T05:18:36.244Z,8.39
2018-09-14T05:19:36.282Z,8.46
2018-09-14T05:20:36.165Z,8.45
2018-09-14T05:21:36.152Z,8.37
2018-09-14T05:22:36.213Z,8.39
2018-09-14T05:23:36.098Z,8.39
2018-09-14T05:24:36.152Z,8.47
2018-09-14T05:25:36.036Z,8.37
2018-09-14T05:26:36.144Z,8.42
2018-09-14T05:27:35.992Z,8.45
2018-09-14T05:28:35.970Z,8.34
2018-09-14T05:29:35.968Z,8.34
2018-09-14T05:30:35.940Z,8.46
2018-09-14T05:31:35.943Z,8.36
2018-09-14T05:33:25.497Z,8.36
2018-09-14T05:34:25.478Z,8.50
2018-09-14T05:35:25.443Z,8.49
2018-09-14T05:36:25.392Z,8.49
2018-09-14T05:37:25.431Z,8.54
2018-09-14T05:38:25.415Z,8.55
2018-09-14T05:39:25.323Z,8.46
2018-09-14T05:40:25.283Z,8.55
2018-09-14T05:41:25.292Z,8.39
2018-09-14T05:42:25.237Z,8.43
2018-09-14T05:43:25.212Z,8.43
2018-09-14T05:44:25.217Z,8.43
2018-09-14T05:45:25.179Z,8.57
2018-09-14T05:46:25.165Z,8.50
2018-09-14T05:48:12.243Z,8.46
2018-09-14T05:49:12.062Z,8.43
2018-09-14T05:50:11.998Z,8.46
2018-09-14T05:51:11.988Z,8.50
2018-09-14T05:52:12.023Z,8.47
2018-09-14T05:53:11.933Z,8.43
2018-09-14T05:54:11.900Z,8.43
2018-09-14T05:55:11.912Z,8.47
2018-09-14T05:56:11.887Z,8.57
2018-09-14T05:57:11.820Z,8.63
2018-09-14T05:58:11.789Z,8.67
2018-09-14T05:59:11.860Z,8.57
2018-09-14T06:00:11.738Z,8.63
2018-09-14T06:01:11.715Z,8.63
2018-09-14T06:02:11.699Z,8.71
2018-09-14T06:03:11.651Z,8.67
2018-09-14T06:04:11.637Z,8.78
2018-09-14T06:05:11.606Z,8.70
2018-09-14T06:06:11.610Z,8.85
2018-09-14T06:07:12.611Z,8.86
2018-09-14T06:08:11.536Z,8.93
2018-09-14T06:09:11.500Z,8.89
2018-09-14T06:10:11.480Z,8.97
2018-09-14T06:10:57.946Z,8.82
2018-09-14T06:11:57.898Z,8.96
2018-09-14T06:12:57.889Z,8.89
2018-09-14T06:13:57.866Z,9.03
2018-09-14T06:14:57.893Z,9.08
2018-09-14T06:15:57.798Z,8.98
2018-09-14T06:16:57.784Z,9.00
2018-09-14T06:17:57.757Z,9.10
2018-09-14T06:18:57.712Z,9.15
2018-09-14T06:19:57.728Z,9.20
2018-09-14T06:20:57.675Z,9.04
2018-09-14T06:22:04.626Z,9.17
2018-09-14T06:22:57.619Z,9.16
2018-09-14T06:23:59.698Z,9.17
2018-09-14T06:24:57.557Z,9.27
2018-09-14T06:25:58.585Z,9.27
2018-09-14T06:26:57.530Z,9.35
2018-09-14T06:29:00.328Z,9.26
2018-09-14T06:30:00.349Z,9.38
2018-09-14T06:31:00.250Z,9.37
2018-09-14T06:32:01.283Z,9.49
2018-09-14T06:33:00.195Z,9.53
2018-09-14T06:34:00.277Z,9.59
2018-09-14T06:35:00.142Z,9.50
2018-09-14T06:36:00.198Z,9.63
2018-09-14T06:37:00.096Z,9.65
2018-09-14T06:38:01.109Z,9.70
2018-09-14T06:39:00.070Z,9.75
2018-09-14T06:40:00.134Z,9.78
2018-09-14T06:40:59.978Z,9.75
2018-09-14T06:42:00.014Z,10.07
2018-09-14T06:42:59.944Z,10.28
2018-09-14T06:44:00.040Z,10.29
2018-09-14T06:44:59.917Z,10.29
2018-09-14T06:45:59.944Z,10.36
2018-09-14T06:46:59.840Z,10.35
2018-09-14T06:47:59.929Z,10.28
2018-09-14T06:48:59.784Z,10.31
2018-09-14T06:49:59.775Z,10.31
2018-09-14T06:50:59.732Z,10.31
2018-09-14T06:51:59.805Z,10.28
2018-09-14T06:52:59.662Z,10.38
2018-09-14T06:54:01.740Z,10.31
2018-09-14T06:54:59.619Z,10.44
2018-09-14T06:55:59.634Z,10.35
2018-09-14T06:56:59.627Z,10.46
2018-09-14T06:57:59.534Z,10.44
2018-09-14T06:58:59.614Z,10.38
2018-09-14T06:59:59.551Z,10.49
2018-09-14T07:00:59.479Z,10.60
2018-09-14T07:01:59.430Z,10.54
2018-09-14T07:03:01.496Z,10.57
2018-09-14T07:03:59.384Z,10.65
2018-09-14T07:04:59.457Z,10.69
2018-09-14T07:05:59.326Z,10.69
2018-09-14T07:07:00.439Z,10.72
2018-09-14T07:07:59.277Z,10.84
2018-09-14T07:09:00.311Z,10.84
2018-09-14T07:09:59.218Z,10.93
2018-09-14T07:11:00.211Z,10.80
2018-09-14T07:11:59.211Z,10.93
2018-09-14T07:12:59.226Z,10.94
2018-09-14T07:13:59.098Z,10.95
2018-09-14T07:14:59.112Z,10.94
2018-09-14T07:15:59.074Z,11.06
2018-09-14T07:16:59.137Z,11.05
2018-09-14T07:17:59.020Z,11.11
2018-09-14T07:18:59.047Z,11.20
2018-09-14T07:19:58.959Z,11.20
2018-09-14T07:21:01.009Z,11.19
2018-09-14T07:21:59.006Z,11.27
2018-09-14T07:22:58.879Z,11.35
2018-09-14T07:25:16.284Z,11.41
2018-09-14T07:26:16.317Z,11.41
2018-09-14T07:27:16.222Z,11.53
2018-09-14T07:28:16.307Z,11.49
2018-09-14T07:29:16.249Z,11.51
2018-09-14T07:30:16.121Z,11.45
2018-09-14T07:31:16.376Z,11.62
2018-09-14T07:32:16.090Z,11.66
2018-09-14T07:33:16.133Z,11.62
2018-09-14T07:34:16.002Z,11.60
2018-09-14T07:35:15.987Z,11.74
2018-09-14T07:36:15.959Z,11.74
2018-09-14T07:37:15.965Z,11.77
2018-09-14T07:38:15.906Z,11.84
2018-09-14T07:39:15.872Z,11.93
2018-09-14T07:40:15.839Z,11.96
2018-09-14T07:41:15.818Z,12.03
2018-09-14T07:42:15.878Z,12.07
2018-09-14T07:43:15.768Z,11.98
2018-09-14T07:44:20.828Z,12.13
2018-09-14T07:45:15.704Z,12.07
2018-09-14T07:46:15.818Z,12.18
2018-09-14T07:47:15.659Z,12.26
2018-09-14T07:48:15.760Z,12.29
2018-09-14T07:49:15.603Z,12.29
2018-09-14T07:50:15.726Z,12.33
2018-09-14T07:51:15.538Z,12.37
2018-09-14T07:52:15.514Z,12.46
2018-09-14T07:53:15.511Z,12.48
2018-09-14T07:55:04.842Z,12.58
2018-09-14T07:56:04.745Z,12.59
2018-09-14T07:57:04.738Z,12.63
2018-09-14T07:58:04.699Z,12.67
2018-09-14T07:59:04.679Z,12.74
2018-09-14T08:00:09.320Z,12.71
2018-09-14T08:01:04.610Z,12.70
2018-09-14T08:02:04.693Z,12.89
2018-09-14T08:04:01.471Z,12.92
2018-09-14T08:05:01.447Z,13.04
2018-09-14T08:06:01.450Z,13.12
2018-09-14T08:07:01.476Z,13.09
2018-09-14T08:08:01.309Z,13.17
2018-09-14T08:09:01.363Z,13.09
2018-09-14T08:10:01.277Z,13.16
2018-09-14T08:11:01.255Z,13.16
2018-09-14T08:12:01.290Z,13.31
2018-09-14T08:13:01.197Z,13.32
2018-09-14T08:14:01.155Z,13.36
2018-09-14T08:15:01.142Z,13.39
2018-09-14T08:16:01.097Z,13.53
2018-09-14T08:17:01.087Z,13.51
2018-09-14T08:18:01.068Z,13.66
2018-09-14T08:19:47.731Z,13.66
2018-09-14T08:20:49.655Z,13.81
2018-09-14T08:21:47.762Z,13.80
2018-09-14T08:22:49.683Z,13.96
2018-09-14T08:23:47.599Z,13.88
2018-09-14T08:24:47.697Z,13.98
2018-09-14T08:25:47.509Z,13.99
2018-09-14T08:26:47.603Z,14.02
2018-09-14T08:27:47.459Z,14.01
2018-09-14T08:28:47.485Z,14.05
2018-09-14T08:29:47.408Z,14.20
2018-09-14T08:30:47.476Z,14.26
2018-09-14T08:31:47.360Z,14.21
2018-09-14T08:32:47.392Z,14.36
2018-09-14T08:33:47.294Z,14.46
2018-09-14T08:35:33.275Z,14.48
2018-09-14T08:36:33.220Z,14.52
2018-09-14T08:38:31.083Z,14.61
2018-09-14T08:39:31.004Z,14.66
2018-09-14T08:41:24.534Z,14.90
2018-09-14T08:42:24.556Z,14.97
2018-09-14T08:43:24.421Z,14.87
2018-09-14T08:44:26.495Z,15.03
2018-09-14T08:45:24.385Z,15.05
2018-09-14T08:46:24.351Z,15.05
2018-09-14T08:47:24.397Z,15.12
2018-09-14T08:48:24.288Z,15.22
2018-09-14T08:49:24.265Z,15.15
2018-09-14T08:50:25.318Z,15.25
2018-09-14T08:51:24.208Z,15.27
2018-09-14T08:52:24.173Z,15.31
2018-09-14T08:53:24.194Z,15.35
2018-09-14T08:55:12.503Z,15.55
2018-09-14T08:56:10.337Z,15.59
2018-09-14T08:57:10.275Z,15.59
2018-09-14T08:58:10.352Z,15.70
2018-09-14T08:59:11.347Z,15.71
2018-09-14T09:00:10.197Z,15.76
2018-09-14T09:01:10.212Z,15.88
2018-09-14T09:02:10.149Z,16.01
2018-09-14T09:03:10.246Z,16.04
2018-09-14T09:04:10.108Z,16.10
2018-09-14T09:05:10.159Z,16.22
2018-09-14T09:06:10.178Z,16.32
2018-09-14T09:07:10.020Z,16.30
2018-09-14T09:08:11.053Z,16.36
2018-09-14T09:09:10.023Z,16.42
2018-09-14T09:10:09.942Z,16.44
2018-09-14T09:11:09.985Z,16.42
2018-09-14T09:12:09.902Z,16.44
2018-09-14T09:13:09.880Z,16.40
2018-09-14T09:14:09.821Z,16.48
2018-09-14T09:15:09.808Z,16.55
2018-09-14T09:16:09.778Z,16.54
2018-09-14T09:17:09.837Z,16.59
2018-09-14T09:18:09.742Z,16.67
2018-09-14T09:19:09.760Z,16.67
2018-09-14T09:20:09.671Z,16.77
2018-09-14T09:21:09.676Z,16.82
2018-09-14T09:22:09.623Z,16.80
2018-09-14T09:23:09.675Z,16.81
2018-09-14T09:24:09.570Z,16.90
2018-09-14T09:25:09.702Z,16.99
2018-09-14T09:26:09.537Z,17.17
2018-09-14T09:27:09.484Z,17.24
2018-09-14T09:28:09.642Z,17.36
2018-09-14T09:29:09.476Z,17.43
2018-09-14T09:30:09.426Z,17.40
2018-09-14T09:31:09.440Z,17.49
2018-09-14T09:32:09.600Z,17.54
2018-09-14T09:33:09.373Z,17.70
2018-09-14T09:34:09.441Z,17.73
2018-09-14T09:35:09.273Z,17.65
2018-09-14T09:36:09.267Z,17.77
2018-09-14T09:38:00.668Z,17.68
2018-09-14T09:39:00.610Z,17.66
2018-09-14T09:40:00.685Z,17.63
2018-09-14T09:41:00.550Z,17.83
2018-09-14T09:42:00.704Z,17.87
2018-09-14T09:43:00.518Z,17.91
2018-09-14T09:44:00.555Z,17.79
2018-09-14T09:45:00.445Z,17.77
2018-09-14T09:46:00.510Z,17.87
2018-09-14T09:47:00.416Z,17.98
2018-09-14T09:48:00.528Z,18.09
2018-09-14T09:49:00.352Z,17.98
2018-09-14T09:50:00.443Z,18.05
2018-09-14T09:51:00.377Z,17.87
2018-09-14T09:52:00.261Z,17.73
2018-09-14T09:53:00.248Z,17.79
2018-09-14T09:54:00.240Z,17.74
2018-09-14T09:55:00.339Z,17.73
2018-09-14T09:56:00.168Z,17.86
2018-09-14T09:57:01.275Z,17.92
2018-09-14T09:58:00.118Z,17.86
2018-09-14T09:59:00.094Z,17.96
2018-09-14T10:00:00.060Z,18.05
2018-09-14T10:01:00.242Z,18.17
2018-09-14T10:02:00.005Z,18.29
2018-09-14T10:03:00.168Z,18.50
2018-09-14T10:04:00.031Z,18.69
2018-09-14T10:05:01.086Z,18.72
2018-09-14T10:05:59.912Z,18.86
2018-09-14T10:06:59.890Z,18.91
2018-09-14T10:07:46.329Z,18.96
2018-09-14T10:08:46.244Z,19.07
2018-09-14T10:09:46.220Z,19.15
2018-09-14T10:10:46.197Z,19.25
2018-09-14T10:11:46.170Z,19.28
2018-09-14T10:12:46.157Z,19.27
2018-09-14T10:13:46.120Z,19.34
2018-09-14T10:14:46.114Z,19.42
2018-09-14T10:15:46.216Z,19.47
2018-09-14T10:16:46.053Z,19.45
2018-09-14T10:17:47.149Z,19.34
2018-09-14T10:18:46.000Z,19.30
2018-09-14T10:19:46.120Z,19.27
2018-09-14T10:20:46.008Z,19.17
2018-09-14T10:21:45.985Z,19.16
2018-09-14T10:22:45.890Z,19.34
2018-09-14T10:23:46.067Z,19.30
2018-09-14T10:24:45.853Z,19.38
2018-09-14T10:25:45.996Z,19.25
2018-09-14T10:26:45.859Z,19.35
2018-09-14T10:27:45.805Z,19.47
2018-09-14T10:28:45.743Z,19.55
2018-09-14T10:29:45.826Z,19.58
2018-09-14T10:30:45.673Z,19.62
2018-09-14T10:31:45.655Z,19.72
2018-09-14T10:32:45.753Z,20.02
2018-09-14T10:33:45.619Z,20.16
2018-09-14T10:34:45.573Z,20.19
2018-09-14T10:35:45.552Z,20.30
2018-09-14T10:36:45.522Z,20.35
2018-09-14T10:37:45.523Z,20.08
2018-09-14T10:38:45.594Z,19.83
2018-09-14T10:39:45.445Z,19.76
2018-09-14T10:40:45.458Z,19.71
2018-09-14T10:41:45.408Z,19.71
2018-09-14T10:42:45.426Z,19.65
2018-09-14T10:43:45.339Z,19.75
2018-09-14T10:44:45.321Z,20.00
2018-09-14T10:45:45.347Z,19.94
2018-09-14T10:46:45.258Z,20.05
2018-09-14T10:47:45.254Z,20.33
2018-09-14T10:48:45.299Z,20.57
2018-09-14T10:49:45.207Z,20.69
2018-09-14T10:50:45.241Z,20.72
2018-09-14T10:51:45.264Z,20.78
2018-09-14T10:52:45.137Z,20.76
2018-09-14T10:54:30.938Z,20.93
2018-09-14T10:55:30.875Z,21.05
2018-09-14T10:56:30.842Z,21.09
2018-09-14T10:57:30.822Z,21.00
2018-09-14T10:58:30.797Z,20.58
2018-09-14T10:59:30.769Z,20.22
2018-09-14T11:00:30.743Z,20.19
2018-09-14T11:01:30.714Z,20.05
2018-09-14T11:02:30.693Z,19.97
2018-09-14T11:03:30.850Z,19.85
2018-09-14T11:04:30.694Z,19.79
2018-09-14T11:05:30.709Z,19.70
2018-09-14T11:06:30.656Z,19.67
2018-09-14T11:07:30.626Z,19.65
2018-09-14T11:08:30.537Z,19.67
2018-09-14T11:09:30.590Z,19.72
2018-09-14T11:10:30.486Z,19.79
2018-09-14T11:11:31.533Z,19.72
2018-09-14T11:12:30.460Z,19.64
2018-09-14T11:13:30.514Z,19.70
2018-09-14T11:14:30.385Z,19.53
2018-09-14T11:15:30.402Z,19.64
2018-09-14T11:16:30.339Z,19.80
2018-09-14T11:17:30.341Z,19.87
2018-09-14T11:19:30.269Z,20.13
2018-09-14T11:20:30.316Z,20.30
2018-09-14T11:21:30.198Z,20.35
2018-09-14T11:22:31.287Z,20.48
2018-09-14T11:23:30.165Z,20.57
2018-09-14T11:24:31.212Z,20.69
2018-09-14T11:25:30.104Z,20.75
2018-09-14T11:26:30.206Z,20.78
2018-09-14T11:27:30.059Z,20.68
2018-09-14T11:28:31.178Z,20.68
2018-09-14T11:29:30.020Z,20.54
2018-09-14T11:30:34.844Z,20.78
2018-09-14T11:31:29.958Z,20.73
2018-09-14T11:32:29.950Z,20.87
2018-09-14T11:33:29.945Z,21.00
2018-09-14T11:34:29.882Z,21.08
2018-09-14T11:35:29.853Z,21.15
2018-09-14T11:36:30.876Z,21.21
2018-09-14T11:37:29.813Z,21.27
2018-09-14T11:38:31.956Z,21.22
2018-09-14T11:39:29.749Z,21.31
2018-09-14T11:40:29.778Z,21.42
2018-09-14T11:41:29.722Z,21.58
2018-09-14T11:42:29.811Z,21.67
2018-09-14T11:43:29.661Z,21.59
2018-09-14T11:45:45.779Z,21.40
2018-09-14T11:46:45.794Z,21.55
2018-09-14T11:47:45.722Z,21.56
2018-09-14T11:48:45.907Z,21.55
2018-09-14T11:49:45.649Z,21.58
2018-09-14T11:50:45.806Z,21.53
2018-09-14T11:51:45.590Z,21.82
2018-09-14T11:52:45.569Z,21.73
2018-09-14T11:53:45.547Z,21.77
2018-09-14T11:54:45.525Z,21.81
2018-09-14T11:55:45.504Z,21.59
2018-09-14T11:56:47.581Z,21.61
2018-09-14T11:57:45.439Z,21.67
2018-09-14T11:58:45.446Z,21.46
2018-09-14T11:59:45.384Z,21.33
2018-09-14T12:00:45.369Z,21.15
2018-09-14T12:01:45.469Z,21.08
2018-09-14T12:02:45.313Z,20.97
2018-09-14T12:03:45.378Z,21.01
2018-09-14T12:04:45.264Z,21.06
2018-09-14T12:05:45.254Z,21.06
2018-09-14T12:06:45.226Z,21.26
2018-09-14T12:07:45.298Z,21.13
2018-09-14T12:08:45.170Z,21.19
2018-09-14T12:09:45.210Z,21.24
2018-09-14T12:10:45.121Z,21.31
2018-09-14T12:11:45.126Z,21.31
2018-09-14T12:12:45.071Z,21.43
2018-09-14T12:13:45.236Z,21.49
2018-09-14T12:14:45.040Z,21.52
2018-09-14T12:15:45.144Z,21.55
2018-09-14T12:16:44.977Z,21.40
2018-09-14T12:17:45.047Z,21.36
2018-09-14T12:18:44.921Z,21.24
2018-09-14T12:19:45.058Z,21.28
2018-09-14T12:20:44.937Z,21.26
2018-09-14T12:21:44.962Z,21.18
2018-09-14T12:22:44.828Z,21.11
2018-09-14T12:23:44.960Z,20.91
2018-09-14T12:24:44.822Z,20.93
2018-09-14T12:25:44.862Z,21.03
2018-09-14T12:26:44.725Z,21.12
2018-09-14T12:27:44.875Z,21.38
2018-09-14T12:28:44.679Z,21.48
2018-09-14T12:29:44.665Z,21.71
2018-09-14T12:30:44.625Z,21.73
2018-09-14T12:31:44.631Z,21.74
2018-09-14T12:32:44.580Z,21.79
2018-09-14T12:33:44.655Z,21.73
2018-09-14T12:34:44.549Z,21.83
2018-09-14T12:35:44.625Z,21.96
2018-09-14T12:36:44.488Z,21.94
2018-09-14T12:37:44.567Z,22.12
2018-09-14T12:38:44.443Z,22.19
2018-09-14T12:39:44.486Z,22.12
2018-09-14T12:40:44.387Z,22.12
2018-09-14T12:41:49.002Z,21.96
2018-09-14T12:42:44.349Z,21.99
2018-09-14T12:43:44.410Z,21.91
2018-09-14T12:44:44.296Z,21.58
2018-09-14T12:45:44.318Z,21.15
2018-09-14T12:46:44.242Z,21.28
2018-09-14T12:47:44.321Z,21.30
2018-09-14T12:48:44.241Z,21.45
2018-09-14T12:49:30.295Z,21.37
2018-09-14T12:50:30.326Z,21.34
2018-09-14T12:51:30.225Z,21.36
2018-09-14T12:52:30.234Z,21.19
2018-09-14T12:53:30.175Z,20.96
2018-09-14T12:54:30.241Z,21.01
2018-09-14T12:55:30.136Z,20.90
2018-09-14T12:56:30.155Z,21.09
2018-09-14T12:57:30.079Z,21.22
2018-09-14T12:58:32.128Z,21.30
2018-09-14T12:59:30.036Z,21.55
2018-09-14T13:00:30.092Z,21.70
2018-09-14T13:01:29.978Z,21.74
2018-09-14T13:02:29.995Z,21.75
2018-09-14T13:03:29.939Z,21.82
2018-09-14T13:04:31.957Z,21.85
2018-09-14T13:05:29.892Z,21.91
2018-09-14T13:06:29.912Z,21.94
2018-09-14T13:07:29.846Z,22.12
2018-09-14T13:08:30.851Z,22.09
2018-09-14T13:09:29.780Z,22.14
2018-09-14T13:10:29.853Z,21.99
2018-09-14T13:11:29.732Z,21.96
2018-09-14T13:12:29.716Z,21.89
2018-09-14T13:13:29.765Z,21.77
2018-09-14T13:14:29.703Z,21.89
2018-09-14T13:15:29.716Z,21.91
2018-09-14T13:16:29.621Z,21.83
2018-09-14T13:17:29.681Z,21.89
2018-09-14T13:18:29.568Z,22.15
2018-09-14T13:19:29.622Z,22.11
2018-09-14T13:20:29.542Z,22.21
2018-09-14T13:21:29.627Z,22.24
2018-09-14T13:22:29.479Z,22.33
2018-09-14T13:23:29.537Z,22.26
2018-09-14T13:25:20.522Z,22.06
2018-09-14T13:26:20.495Z,22.09
2018-09-14T13:27:20.451Z,22.09
2018-09-14T13:28:22.515Z,22.14
2018-09-14T13:29:20.440Z,22.19
2018-09-14T13:30:20.371Z,21.98
2018-09-14T13:31:20.367Z,21.89
2018-09-14T13:32:20.360Z,21.74
2018-09-14T13:33:20.399Z,21.75
2018-09-14T13:34:20.291Z,21.74
2018-09-14T13:35:25.101Z,21.67
2018-09-14T13:36:20.221Z,21.63
2018-09-14T13:37:20.311Z,21.74
2018-09-14T13:38:20.179Z,21.75
2018-09-14T13:39:21.235Z,21.73
2018-09-14T13:40:20.128Z,21.79
2018-09-14T13:41:21.149Z,21.77
2018-09-14T13:42:20.093Z,21.93
2018-09-14T13:43:20.139Z,21.81
2018-09-14T13:44:20.025Z,21.83
2018-09-14T13:45:20.052Z,21.82
2018-09-14T13:46:19.999Z,21.63
2018-09-14T13:47:20.992Z,21.46
2018-09-14T13:48:19.951Z,21.38
2018-09-14T13:49:19.976Z,21.30
2018-09-14T13:50:19.893Z,21.37
2018-09-14T13:51:19.888Z,21.45
2018-09-14T13:52:19.998Z,21.48
2018-09-14T13:53:19.933Z,21.51
2018-09-14T13:54:19.806Z,21.58
2018-09-14T13:55:19.840Z,21.52
2018-09-14T13:56:19.744Z,21.59
2018-09-14T13:57:19.725Z,21.64
2018-09-14T13:58:19.698Z,21.64
2018-09-14T13:59:19.699Z,21.58
2018-09-14T14:00:19.660Z,21.51
2018-09-14T14:01:19.725Z,21.58
2018-09-14T14:02:19.593Z,21.53
2018-09-14T14:03:19.606Z,21.46
2018-09-14T14:04:19.549Z,21.45